Time;durP1;ratioP1;P1;durP2;ratioP2;P2;SDS_P1;SDS_P2;PMS_P1;PMS_P2;Temp;Humidity;BMP_temperature;BMP_pressure;BME280_temperature;BME280_humidity;BME280_pressure;Samples;Min_cycle;Max_cycle;Signal;HPM_P1;HPM_P2
2022/12/14 00:00:51;;;;;;;17.75;8.63;;;-1.30;99.90;;;;;;4998571;28;20278;-80
2022/12/14 00:03:18;;;;;;;16.25;8.13;;;-1.30;99.90;;;;;;4998162;28;20204;-81
2022/12/14 00:05:45;;;;;;;17.83;9.00;;;-1.20;99.90;;;;;;4998411;28;20203;-81
2022/12/14 00:08:13;;;;;;;13.90;7.03;;;-1.30;99.90;;;;;;4990307;28;20223;-81
2022/12/14 00:10:42;;;;;;;15.60;7.85;;;-1.30;99.90;;;;;;4997422;28;20247;-79
2022/12/14 00:13:10;;;;;;;15.52;8.38;;;-1.30;99.90;;;;;;4997262;28;20207;-81
2022/12/14 00:15:37;;;;;;;13.85;7.63;;;-1.30;99.90;;;;;;4997532;28;20467;-79
2022/12/14 00:18:05;;;;;;;16.95;8.80;;;-1.30;99.90;;;;;;4996200;28;20238;-80
2022/12/14 00:20:33;;;;;;;14.25;8.13;;;-1.40;99.90;;;;;;4998538;28;20208;-81
2022/12/14 00:22:59;;;;;;;15.50;8.02;;;-1.40;99.90;;;;;;4998022;28;20200;-80
2022/12/14 00:25:26;;;;;;;13.88;8.68;;;-1.40;99.90;;;;;;4997269;28;20668;-79
2022/12/14 00:27:54;;;;;;;11.88;6.97;;;-1.40;99.90;;;;;;4996667;28;20234;-80
2022/12/14 00:30:21;;;;;;;12.18;6.50;;;-1.40;99.90;;;;;;4997961;28;20237;-80
2022/12/14 00:32:48;;;;;;;14.88;7.88;;;-1.30;99.90;;;;;;4993137;28;20230;-81
2022/12/14 00:35:17;;;;;;;17.45;7.32;;;-1.30;99.90;;;;;;4989566;28;20200;-78
2022/12/14 00:37:44;;;;;;;11.80;6.50;;;-1.30;99.90;;;;;;4996257;28;20232;-79
2022/12/14 00:40:12;;;;;;;12.20;6.40;;;-1.30;99.90;;;;;;4996136;28;20300;-80
2022/12/14 00:42:38;;;;;;;13.60;7.05;;;-1.30;99.90;;;;;;4997034;28;20215;-80
2022/12/14 00:45:08;;;;;;;15.38;8.00;;;-1.30;99.90;;;;;;4998539;28;20210;-82
2022/12/14 00:47:35;;;;;;;10.68;5.75;;;-1.30;99.90;;;;;;4999405;28;20258;-80
2022/12/14 00:50:02;;;;;;;11.85;6.80;;;-1.30;99.90;;;;;;4997248;28;20215;-81
2022/12/14 00:52:29;;;;;;;13.45;6.78;;;-1.30;99.90;;;;;;4997592;28;20593;-83
2022/12/14 00:54:55;;;;;;;16.60;8.40;;;-1.30;99.90;;;;;;4997889;28;20207;-81
2022/12/14 00:57:22;;;;;;;10.07;5.68;;;-1.30;99.90;;;;;;4996359;28;20214;-80
2022/12/14 00:59:49;;;;;;;15.32;6.88;;;-1.30;99.90;;;;;;4992357;28;20199;-81
2022/12/14 01:02:17;;;;;;;15.00;7.25;;;-1.40;99.90;;;;;;4993631;28;20668;-79
2022/12/14 01:04:44;;;;;;;10.63;6.80;;;-1.40;99.90;;;;;;4993572;28;20208;-80
2022/12/14 01:07:11;;;;;;;15.18;5.75;;;-1.40;99.90;;;;;;4991441;28;20212;-80
2022/12/14 01:09:37;;;;;;;13.85;6.90;;;-1.40;99.90;;;;;;4993041;28;20228;-80
2022/12/14 01:12:05;;;;;;;10.98;6.00;;;-1.40;99.90;;;;;;4995493;28;20215;-79
2022/12/14 01:14:32;;;;;;;9.43;5.95;;;-1.40;99.90;;;;;;4994967;28;20282;-79
2022/12/14 01:16:58;;;;;;;15.77;5.80;;;-1.40;99.90;;;;;;4996705;28;20686;-79
2022/12/14 01:19:27;;;;;;;12.35;5.90;;;-1.40;99.90;;;;;;4996158;28;20581;-80
2022/12/14 01:21:54;;;;;;;9.55;6.05;;;-1.40;99.90;;;;;;5001130;28;20218;-79
2022/12/14 01:24:20;;;;;;;13.27;6.45;;;-1.30;99.90;;;;;;5001812;28;20228;-82
2022/12/14 01:26:47;;;;;;;10.85;6.80;;;-1.30;99.90;;;;;;5002607;28;20217;-80
2022/12/14 01:29:15;;;;;;;12.50;6.47;;;-1.30;99.90;;;;;;5000407;28;20251;-81
2022/12/14 01:31:42;;;;;;;12.68;6.90;;;-1.30;99.90;;;;;;5005140;28;20207;-79
2022/12/14 01:34:10;;;;;;;11.65;6.05;;;-1.30;99.90;;;;;;5006805;28;20231;-82
2022/12/14 01:36:39;;;;;;;10.63;5.40;;;-1.30;99.90;;;;;;5002716;28;20299;-81
2022/12/14 01:39:09;;;;;;;9.60;5.55;;;-1.40;99.90;;;;;;5000955;28;20230;-80
2022/12/14 01:41:38;;;;;;;11.15;5.05;;;-1.40;99.90;;;;;;5001827;28;20200;-81
2022/12/14 01:44:38;;;;;;;10.00;5.18;;;-1.40;99.90;;;;;;5001255;28;20204;-79
2022/12/14 01:47:08;;;;;;;7.70;4.90;;;-1.40;99.90;;;;;;5000337;28;20234;-80
2022/12/14 01:49:40;;;;;;;10.48;5.95;;;-1.40;99.90;;;;;;4999693;28;20219;-81
2022/12/14 01:52:14;;;;;;;10.15;5.43;;;-1.50;99.90;;;;;;5001061;28;20607;-80
2022/12/14 01:54:45;;;;;;;9.95;6.40;;;-1.50;99.90;;;;;;4998735;28;20200;-78
2022/12/14 01:57:13;;;;;;;11.98;5.80;;;-1.50;99.90;;;;;;5000816;28;20279;-80
2022/12/14 01:59:44;;;;;;;10.32;5.00;;;-1.40;99.90;;;;;;4999674;28;20199;-81
2022/12/14 02:02:14;;;;;;;12.25;6.25;;;-1.40;99.90;;;;;;5000703;28;20201;-80
2022/12/14 02:04:44;;;;;;;9.30;5.28;;;-1.30;99.90;;;;;;5000652;28;20220;-80
2022/12/14 02:07:15;;;;;;;6.80;4.35;;;-1.40;99.90;;;;;;5000444;28;20299;-79
2022/12/14 02:09:44;;;;;;;8.07;4.55;;;-1.40;99.90;;;;;;4999607;28;20303;-79
2022/12/14 02:12:16;;;;;;;12.23;5.53;;;-1.40;99.90;;;;;;5000586;28;20231;-79
2022/12/14 02:14:43;;;;;;;12.73;4.03;;;-1.30;99.90;;;;;;5000127;28;20283;-80
2022/12/14 02:17:13;;;;;;;7.30;4.40;;;-1.40;99.90;;;;;;4999414;28;20199;-81
2022/12/14 02:19:45;;;;;;;9.18;4.70;;;-1.40;99.90;;;;;;4998648;28;20215;-80
2022/12/14 02:22:42;;;;;;;9.30;5.43;;;-1.40;99.90;;;;;;5000286;28;20207;-80
2022/12/14 02:25:31;;;;;;;6.90;4.35;;;-1.40;99.90;;;;;;5000351;28;20210;-79
2022/12/14 02:28:13;;;;;;;10.70;4.88;;;-1.50;99.90;;;;;;4999221;28;20228;-80
2022/12/14 02:30:44;;;;;;;6.43;4.03;;;-1.50;99.90;;;;;;5000052;28;20221;-79
2022/12/14 02:33:33;;;;;;;10.55;4.78;;;-1.60;99.90;;;;;;4999052;28;20590;-81
2022/12/14 02:36:03;;;;;;;7.85;4.05;;;-1.60;99.90;;;;;;4981599;28;20633;-80
2022/12/14 02:38:49;;;;;;;11.90;5.28;;;-1.50;99.90;;;;;;4999257;28;20223;-80
2022/12/14 02:41:23;;;;;;;9.93;4.53;;;-1.60;99.90;;;;;;5001936;28;20221;-80
2022/12/14 02:44:00;;;;;;;8.93;5.13;;;-1.60;99.90;;;;;;5002126;28;20275;-80
2022/12/14 02:46:32;;;;;;;8.93;4.25;;;-1.60;99.90;;;;;;5001398;28;20188;-80
2022/12/14 02:49:03;;;;;;;11.75;6.07;;;-1.60;99.90;;;;;;4980835;28;20315;-81
2022/12/14 02:51:42;;;;;;;8.07;4.30;;;-1.60;99.90;;;;;;4981263;28;20315;-80
2022/12/14 02:54:13;;;;;;;7.93;4.32;;;-1.60;99.90;;;;;;4986161;28;20555;-80
2022/12/14 02:56:45;;;;;;;9.07;4.80;;;-1.60;99.90;;;;;;4996941;28;20208;-80
2022/12/14 02:59:14;;;;;;;7.28;4.20;;;-1.60;99.90;;;;;;4998695;28;20266;-81
2022/12/14 03:01:43;;;;;;;7.80;4.47;;;-1.60;99.90;;;;;;5000477;28;20290;-79
2022/12/14 03:04:09;;;;;;;7.38;4.13;;;-1.60;99.90;;;;;;4999407;28;20670;-79
2022/12/14 03:06:36;;;;;;;8.20;4.45;;;-1.60;99.90;;;;;;5000142;28;20209;-79
2022/12/14 03:09:07;;;;;;;8.15;4.00;;;-1.60;99.90;;;;;;4999397;28;20227;-79
2022/12/14 03:11:41;;;;;;;7.32;4.15;;;-1.50;99.90;;;;;;4999623;28;20232;-80
2022/12/14 03:14:12;;;;;;;7.43;4.25;;;-1.50;99.90;;;;;;4999150;28;20199;-79
2022/12/14 03:16:44;;;;;;;6.20;3.75;;;-1.50;99.90;;;;;;4999598;28;20290;-80
2022/12/14 03:19:17;;;;;;;5.78;4.18;;;-1.50;99.90;;;;;;4998018;28;20240;-79
2022/12/14 03:21:47;;;;;;;8.38;3.60;;;-1.50;99.90;;;;;;4998072;28;20239;-79
2022/12/14 03:24:20;;;;;;;5.57;3.72;;;-1.50;99.90;;;;;;4999020;28;20291;-79
2022/12/14 03:26:52;;;;;;;7.10;4.00;;;-1.40;99.90;;;;;;4998511;28;20232;-82
2022/12/14 03:29:22;;;;;;;5.72;3.58;;;-1.50;99.90;;;;;;4997298;28;20331;-82
2022/12/14 03:31:55;;;;;;;8.80;4.80;;;-1.50;99.90;;;;;;4997730;28;20234;-82
2022/12/14 03:34:28;;;;;;;12.50;5.05;;;-1.50;99.90;;;;;;4998880;28;20191;-78
2022/12/14 03:36:58;;;;;;;8.43;3.85;;;-1.40;99.90;;;;;;4998690;28;20662;-80
2022/12/14 03:39:29;;;;;;;8.07;4.28;;;-1.40;99.90;;;;;;4997197;28;20716;-81
2022/12/14 03:42:03;;;;;;;6.05;3.55;;;-1.40;99.90;;;;;;4997902;28;20201;-81
2022/12/14 03:44:36;;;;;;;10.93;4.22;;;-1.40;99.90;;;;;;4998210;28;20207;-80
2022/12/14 03:47:17;;;;;;;6.43;3.92;;;-1.40;99.90;;;;;;4998825;28;20198;-78
2022/12/14 03:49:57;;;;;;;8.80;4.10;;;-1.50;99.90;;;;;;4997575;28;20210;-81
2022/12/14 03:52:32;;;;;;;11.63;4.05;;;-1.50;99.90;;;;;;4997923;28;20270;-80
2022/12/14 03:55:08;;;;;;;8.82;3.97;;;-1.60;99.90;;;;;;4995272;28;20892;-79
2022/12/14 03:57:51;;;;;;;9.02;4.47;;;-1.60;99.90;;;;;;4998333;28;20727;-79
2022/12/14 04:00:22;;;;;;;7.43;3.80;;;-1.60;99.90;;;;;;4997376;28;20206;-78
2022/12/14 04:02:57;;;;;;;8.30;3.40;;;-1.70;99.90;;;;;;4997964;28;20207;-80
2022/12/14 04:05:33;;;;;;;7.65;3.85;;;-1.70;99.90;;;;;;4997143;28;20199;-80
2022/12/14 04:08:05;;;;;;;8.25;4.38;;;-1.70;99.90;;;;;;4996147;28;20227;-80
2022/12/14 04:19:18;;;;;;;7.30;3.95;;;-1.70;99.90;;;;;;5002687;28;20246;-80
2022/12/14 04:21:49;;;;;;;13.95;4.47;;;-1.70;99.90;;;;;;5001131;28;20330;-82
2022/12/14 04:27:10;;;;;;;8.35;3.33;;;-1.70;99.90;;;;;;4998483;28;20198;-81
2022/12/14 04:29:57;;;;;;;7.57;4.00;;;-1.70;99.90;;;;;;4997865;28;20237;-83
2022/12/14 04:32:29;;;;;;;6.88;3.60;;;-1.70;99.90;;;;;;4998510;28;20216;-82
2022/12/14 04:35:02;;;;;;;5.85;2.85;;;-1.60;99.90;;;;;;5000033;28;20198;-81
2022/12/14 04:37:31;;;;;;;8.57;4.13;;;-1.60;99.90;;;;;;4998373;28;20242;-80
2022/12/14 04:40:04;;;;;;;9.50;4.93;;;-1.60;99.90;;;;;;4997526;28;20298;-81
2022/12/14 04:42:34;;;;;;;6.85;3.42;;;-1.50;99.90;;;;;;4997613;28;20299;-80
2022/12/14 04:45:06;;;;;;;9.00;4.32;;;-1.50;99.90;;;;;;4998056;28;20563;-80
2022/12/14 04:47:38;;;;;;;6.05;3.25;;;-1.50;99.90;;;;;;4997566;28;20221;-81
2022/12/14 04:50:12;;;;;;;5.05;3.15;;;-1.60;99.90;;;;;;4996564;28;20214;-79
2022/12/14 04:52:43;;;;;;;6.78;3.65;;;-1.50;99.90;;;;;;4997860;28;20198;-80
2022/12/14 04:55:17;;;;;;;9.80;3.83;;;-1.50;99.90;;;;;;4995669;28;20207;-81
2022/12/14 04:57:49;;;;;;;7.07;4.00;;;-1.50;99.90;;;;;;5003187;28;20223;-80
2022/12/14 05:00:17;;;;;;;6.45;3.47;;;-1.40;99.90;;;;;;5009767;28;20274;-79
2022/12/14 05:03:03;;;;;;;4.82;3.20;;;-1.40;99.90;;;;;;5010586;28;20239;-79
2022/12/14 05:05:42;;;;;;;12.13;4.68;;;-1.40;99.90;;;;;;5006170;28;20298;-80
2022/12/14 05:08:17;;;;;;;7.38;3.45;;;-1.40;99.90;;;;;;4984995;28;20303;-80
2022/12/14 05:10:46;;;;;;;9.52;5.07;;;-1.40;99.90;;;;;;4985660;28;20219;-81
2022/12/14 05:13:18;;;;;;;5.72;3.50;;;-1.40;99.90;;;;;;4985491;28;20208;-81
2022/12/14 05:15:49;;;;;;;6.38;3.92;;;-1.40;99.90;;;;;;5001927;28;20219;-82
2022/12/14 05:18:16;;;;;;;8.25;3.65;;;-1.40;99.90;;;;;;4983632;28;20267;-80
2022/12/14 05:20:46;;;;;;;6.47;3.25;;;-1.50;99.90;;;;;;5055411;23;20226;-83
2022/12/14 05:23:13;;;;;;;6.25;3.83;;;-1.40;99.90;;;;;;5054210;28;20209;-83
2022/12/14 05:25:40;;;;;;;10.20;4.00;;;-1.40;99.90;;;;;;5049507;28;20274;-80
2022/12/14 05:28:07;;;;;;;7.45;4.43;;;-1.40;99.90;;;;;;5046999;28;20229;-80
2022/12/14 05:30:34;;;;;;;7.40;3.35;;;-1.50;99.90;;;;;;5050790;28;20228;-81
2022/12/14 05:33:01;;;;;;;6.72;3.80;;;-1.50;99.90;;;;;;5062450;28;20273;-81
2022/12/14 05:35:28;;;;;;;6.10;3.65;;;-1.60;99.90;;;;;;5056125;28;20466;-81
2022/12/14 05:37:56;;;;;;;9.20;4.47;;;-1.50;99.90;;;;;;5064827;28;20301;-80
2022/12/14 05:40:22;;;;;;;7.30;4.65;;;-1.50;99.90;;;;;;5054492;28;20299;-82
2022/12/14 05:42:49;;;;;;;8.45;4.45;;;-1.50;99.90;;;;;;5045075;28;20245;-82
2022/12/14 05:45:16;;;;;;;8.32;4.25;;;-1.60;99.90;;;;;;5038861;28;20209;-82
2022/12/14 05:47:43;;;;;;;217.85;71.32;;;-1.30;99.90;;;;;;5054509;28;20207;-80
2022/12/14 05:50:10;;;;;;;202.20;53.08;;;-1.60;99.90;;;;;;5046882;28;20219;-78
2022/12/14 05:52:37;;;;;;;63.90;33.90;;;-1.50;99.90;;;;;;5048868;28;20229;-78
2022/12/14 05:55:06;;;;;;;139.77;63.58;;;-1.40;99.90;;;;;;5043341;28;20292;-81
2022/12/14 05:57:33;;;;;;;166.70;47.90;;;-1.80;99.90;;;;;;5048545;28;20208;-81
2022/12/14 06:00:00;;;;;;;137.80;45.35;;;-1.30;99.90;;;;;;5062363;28;20225;-82
2022/12/14 06:02:27;;;;;;;138.38;42.85;;;;;;;;;;5050276;28;20233;-80
2022/12/14 06:04:54;;;;;;;275.75;255.15;;;-1.40;99.90;;;;;;5052964;28;20233;-78
2022/12/14 06:07:21;;;;;;;8.25;3.15;;;-1.40;99.90;;;;;;5049379;28;20238;-79
2022/12/14 06:09:47;;;;;;;5.53;3.33;;;-1.40;99.90;;;;;;5036507;28;20233;-81
2022/12/14 06:12:15;;;;;;;9.25;3.50;;;-1.40;99.90;;;;;;5040490;28;20251;-81
2022/12/14 06:14:42;;;;;;;8.40;4.60;;;-1.40;99.90;;;;;;5054067;28;20215;-82
2022/12/14 06:17:10;;;;;;;7.68;4.18;;;-1.40;99.90;;;;;;5041749;28;20198;-82
2022/12/14 06:19:37;;;;;;;8.63;3.78;;;-1.30;99.90;;;;;;5046111;28;20231;-80
2022/12/14 06:22:04;;;;;;;7.68;4.10;;;-1.30;99.90;;;;;;5056684;28;20217;-81
2022/12/14 06:24:31;;;;;;;8.77;4.28;;;-1.30;99.90;;;;;;5039168;28;20213;-81
2022/12/14 06:26:58;;;;;;;11.20;4.50;;;-1.20;99.90;;;;;;5035975;28;20213;-84
2022/12/14 06:29:26;;;;;;;6.20;3.20;;;-1.20;99.90;;;;;;5042714;28;20231;-86
2022/12/14 06:31:52;;;;;;;6.13;3.95;;;-1.20;99.90;;;;;;5041697;28;20240;-85
2022/12/14 06:34:19;;;;;;;8.38;3.35;;;-1.10;99.90;;;;;;5041347;28;20212;-81
2022/12/14 06:36:46;;;;;;;16.55;14.90;;;-1.10;99.90;;;;;;5061175;28;20216;-80
2022/12/14 06:39:15;;;;;;;9.63;4.28;;;-1.10;99.90;;;;;;5041990;28;20305;-80
2022/12/14 06:41:45;;;;;;;8.85;5.15;;;-1.20;99.90;;;;;;5055689;28;20290;-80
2022/12/14 06:44:13;;;;;;;6.28;3.55;;;-1.20;99.90;;;;;;5060459;28;20201;-81
2022/12/14 06:46:42;;;;;;;7.82;3.60;;;-1.10;99.90;;;;;;5048246;28;20213;-81
2022/12/14 06:49:13;;;;;;;9.90;4.32;;;-1.20;99.90;;;;;;5042125;28;20255;-80
2022/12/14 06:51:41;;;;;;;8.85;3.83;;;-1.20;99.90;;;;;;5049727;28;20625;-81
2022/12/14 06:54:09;;;;;;;11.07;3.78;;;-1.20;99.90;;;;;;5051777;28;20220;-81
2022/12/14 06:56:36;;;;;;;11.65;4.50;;;-1.40;99.90;;;;;;5049251;28;20203;-81
2022/12/14 06:59:04;;;;;;;8.93;4.25;;;-1.30;99.90;;;;;;5056382;28;20207;-80
2022/12/14 07:01:31;;;;;;;6.13;3.92;;;-1.30;99.90;;;;;;5047298;28;20205;-81
2022/12/14 07:03:59;;;;;;;8.15;3.92;;;-1.10;99.90;;;;;;5037966;28;20674;-80
2022/12/14 07:06:28;;;;;;;7.35;2.95;;;-1.10;99.90;;;;;;5037715;28;20279;-79
2022/12/14 07:08:57;;;;;;;7.75;3.78;;;-1.10;99.90;;;;;;5042289;28;20208;-81
2022/12/14 07:11:24;;;;;;;10.55;4.97;;;-1.10;99.90;;;;;;5047481;28;20214;-79
2022/12/14 07:13:51;;;;;;;9.57;4.30;;;-1.10;99.90;;;;;;5043563;28;20684;-79
2022/12/14 07:16:20;;;;;;;7.80;4.68;;;-1.00;99.90;;;;;;5057680;28;20745;-81
2022/12/14 07:18:47;;;;;;;8.63;4.25;;;-1.00;99.90;;;;;;5053141;28;20666;-80
2022/12/14 07:21:17;;;;;;;22.55;5.00;;;-0.90;99.90;;;;;;5037100;28;20234;-79
2022/12/14 07:23:46;;;;;;;9.35;4.75;;;-1.00;99.90;;;;;;5039866;28;20198;-82
2022/12/14 07:26:16;;;;;;;13.20;4.70;;;-1.10;99.90;;;;;;5057501;28;20615;-78
2022/12/14 07:28:45;;;;;;;7.57;4.55;;;-1.00;99.90;;;;;;5053157;28;20209;-80
2022/12/14 07:31:14;;;;;;;8.95;4.82;;;-1.10;99.90;;;;;;5052877;28;20320;-78
2022/12/14 07:33:41;;;;;;;8.98;4.68;;;-1.10;99.90;;;;;;5054014;28;20218;-78
2022/12/14 07:36:10;;;;;;;8.98;4.18;;;-1.10;99.90;;;;;;5036547;28;20207;-81
2022/12/14 07:38:40;;;;;;;11.30;5.05;;;-1.00;99.90;;;;;;5035755;28;20758;-81
2022/12/14 07:41:09;;;;;;;11.18;4.72;;;-1.10;99.90;;;;;;5042682;28;20282;-80
2022/12/14 07:43:36;;;;;;;14.07;5.85;;;-1.00;99.90;;;;;;5058200;28;20201;-80
2022/12/14 07:46:05;;;;;;;8.43;4.40;;;-1.00;99.90;;;;;;5057257;28;20295;-80
2022/12/14 07:48:33;;;;;;;12.40;5.22;;;-1.20;99.90;;;;;;5035580;28;20210;-81
2022/12/14 07:51:04;;;;;;;11.27;5.05;;;-1.20;99.90;;;;;;5036156;28;20234;-81
2022/12/14 07:53:31;;;;;;;10.05;4.18;;;-1.20;99.90;;;;;;5054464;28;20700;-80
2022/12/14 07:56:03;;;;;;;9.90;5.10;;;-1.10;99.90;;;;;;5056303;28;20206;-82
2022/12/14 07:58:30;;;;;;;11.45;5.20;;;-1.10;99.90;;;;;;5056199;28;20213;-82
2022/12/14 08:01:08;;;;;;;10.35;5.55;;;-1.20;99.90;;;;;;5055534;28;20228;-82
2022/12/14 08:03:35;;;;;;;9.57;4.82;;;-1.10;99.90;;;;;;5028301;28;20266;-79
2022/12/14 08:06:04;;;;;;;10.98;5.72;;;-1.10;99.90;;;;;;5032557;28;20194;-81
2022/12/14 08:08:31;;;;;;;14.40;6.10;;;-1.20;99.90;;;;;;5026580;28;20202;-81
2022/12/14 08:10:58;;;;;;;11.77;5.82;;;-1.30;99.90;;;;;;5035756;28;20226;-82
2022/12/14 08:13:26;;;;;;;11.90;6.20;;;-1.60;99.90;;;;;;5032003;28;20224;-79
2022/12/14 08:15:53;;;;;;;10.63;5.65;;;-1.50;99.90;;;;;;5035036;28;20212;-82
2022/12/14 08:18:20;;;;;;;12.90;5.68;;;-1.60;99.90;;;;;;5055623;28;20209;-80
2022/12/14 08:20:49;;;;;;;9.18;5.20;;;-1.60;99.90;;;;;;5049146;28;20236;-79
2022/12/14 08:23:30;;;;;;;13.75;6.63;;;-1.50;99.90;;;;;;5036452;28;20205;-79
2022/12/14 08:26:00;;;;;;;10.38;5.40;;;-1.50;99.90;;;;;;5033789;28;20226;-79
2022/12/14 08:28:30;;;;;;;12.90;5.28;;;-1.60;99.90;;;;;;5036452;28;20262;-82
2022/12/14 08:30:57;;;;;;;9.32;4.80;;;-1.50;99.90;;;;;;5032627;28;20219;-81
2022/12/14 08:33:24;;;;;;;12.07;6.45;;;-1.30;99.90;;;;;;5032776;28;20229;-79
2022/12/14 08:35:51;;;;;;;11.25;6.20;;;-1.40;99.90;;;;;;5040758;28;20206;-81
2022/12/14 08:38:18;;;;;;;11.45;5.65;;;-1.30;99.90;;;;;;5046707;28;20235;-81
2022/12/14 08:40:45;;;;;;;14.55;7.45;;;-1.10;99.90;;;;;;5028954;28;20230;-82
2022/12/14 08:43:11;;;;;;;8.95;5.05;;;-1.10;99.90;;;;;;5034577;28;20287;-82
2022/12/14 08:45:40;;;;;;;11.13;5.55;;;-1.00;99.90;;;;;;5038776;28;20294;-80
2022/12/14 08:48:07;;;;;;;10.95;4.57;;;-0.90;99.90;;;;;;5035131;28;20224;-82
2022/12/14 08:50:33;;;;;;;8.05;4.85;;;-0.80;99.90;;;;;;5035886;28;20232;-79
2022/12/14 08:53:00;;;;;;;14.18;5.90;;;-0.70;99.90;;;;;;5049976;28;20700;-80
2022/12/14 08:55:27;;;;;;;13.98;5.90;;;-0.70;99.90;;;;;;5051163;28;20233;-82
2022/12/14 08:57:54;;;;;;;12.18;5.63;;;-0.70;99.90;;;;;;5034314;28;20654;-80
2022/12/14 09:00:21;;;;;;;9.65;4.95;;;-0.70;99.90;;;;;;5034851;28;20230;-82
2022/12/14 09:02:51;;;;;;;9.85;6.40;;;-0.60;99.90;;;;;;5030347;28;20203;-79
2022/12/14 09:05:18;;;;;;;10.68;5.38;;;-0.50;99.90;;;;;;5035985;28;20270;-82
2022/12/14 09:07:45;;;;;;;14.77;7.53;;;-0.40;99.90;;;;;;5035643;28;20210;-81
2022/12/14 09:10:12;;;;;;;12.90;6.95;;;-0.40;99.90;;;;;;5034702;28;20224;-82
2022/12/14 09:12:39;;;;;;;10.55;5.70;;;-0.30;99.90;;;;;;5031796;28;20219;-82
2022/12/14 09:15:09;;;;;;;10.27;6.00;;;-0.40;99.90;;;;;;5033214;28;20579;-81
2022/12/14 09:17:36;;;;;;;13.35;6.35;;;-0.30;99.90;;;;;;5031940;28;20221;-80
2022/12/14 09:20:05;;;;;;;10.32;5.32;;;-0.40;99.90;;;;;;5034160;28;20281;-81
2022/12/14 09:22:32;;;;;;;10.23;6.22;;;-0.40;99.90;;;;;;5033308;28;20676;-81
2022/12/14 09:24:59;;;;;;;12.07;6.68;;;-0.60;99.90;;;;;;5034083;28;20291;-82
2022/12/14 09:27:28;;;;;;;10.85;6.32;;;-0.40;99.90;;;;;;5033588;28;20233;-80
2022/12/14 09:29:55;;;;;;;13.57;6.25;;;-0.40;99.90;;;;;;5031618;28;20284;-82
2022/12/14 09:32:22;;;;;;;19.45;7.80;;;-0.40;99.90;;;;;;5031751;28;20228;-82
2022/12/14 09:34:49;;;;;;;12.00;6.32;;;-0.40;99.90;;;;;;5035875;28;20207;-82
2022/12/14 09:37:17;;;;;;;13.18;5.90;;;-0.30;99.90;;;;;;5035763;28;20198;-82
2022/12/14 09:39:44;;;;;;;11.25;6.20;;;-0.20;99.90;;;;;;5034830;28;20617;-82
2022/12/14 09:42:21;;;;;;;10.65;6.28;;;-0.10;99.90;;;;;;5038071;28;20195;-82
2022/12/14 09:44:57;;;;;;;11.30;5.75;;;-0.20;99.90;;;;;;5040232;28;20244;-82
2022/12/14 09:47:30;;;;;;;9.82;6.25;;;-0.20;99.90;;;;;;5038374;28;20199;-81
2022/12/14 09:50:01;;;;;;;13.45;6.97;;;-0.30;99.90;;;;;;5038054;28;20691;-80
2022/12/14 09:52:36;;;;;;;11.82;5.30;;;-0.20;99.90;;;;;;5046438;28;20704;-81
2022/12/14 09:55:07;;;;;;;12.13;5.82;;;-0.10;99.90;;;;;;5033693;28;20207;-81
2022/12/14 09:57:39;;;;;;;15.57;6.70;;;-0.10;99.90;;;;;;5035912;28;20208;-80
2022/12/14 10:00:14;;;;;;;12.68;6.93;;;-0.10;99.90;;;;;;5036029;28;20224;-82
2022/12/14 10:02:50;;;;;;;14.13;6.80;;;0.00;99.90;;;;;;5035112;28;20204;-82
2022/12/14 10:05:32;;;;;;;14.60;6.65;;;0.00;99.90;;;;;;5035761;28;20294;-82
2022/12/14 10:08:10;;;;;;;14.70;6.30;;;0.00;99.90;;;;;;5034961;28;20290;-82
2022/12/14 10:10:43;;;;;;;11.55;5.85;;;0.00;99.90;;;;;;5034700;28;20235;-82
2022/12/14 10:13:24;;;;;;;14.35;6.15;;;0.10;99.90;;;;;;5037555;28;20213;-82
2022/12/14 10:15:59;;;;;;;15.63;7.03;;;0.20;99.90;;;;;;5031691;28;20246;-81
2022/12/14 10:19:05;;;;;;;11.55;6.75;;;0.40;99.90;;;;;;5018033;28;20198;-82
2022/12/14 10:21:40;;;;;;;15.00;7.00;;;0.60;99.90;;;;;;5001158;28;20217;-80
2022/12/14 10:24:17;;;;;;;13.85;6.13;;;0.60;99.90;;;;;;5037745;28;20193;-80
2022/12/14 10:26:48;;;;;;;16.58;6.15;;;0.70;99.90;;;;;;5026250;28;20737;-82
2022/12/14 10:29:21;;;;;;;16.77;7.07;;;0.80;99.90;;;;;;5036311;28;20668;-81
2022/12/14 10:31:55;;;;;;;11.65;5.70;;;0.70;99.90;;;;;;5038773;28;20199;-81
2022/12/14 10:34:28;;;;;;;12.57;6.45;;;0.80;99.90;;;;;;5030180;28;20204;-82
2022/12/14 10:37:01;;;;;;;14.02;7.07;;;0.90;99.90;;;;;;5036032;28;20199;-82
2022/12/14 10:39:40;;;;;;;11.52;5.50;;;1.10;99.90;;;;;;5033692;28;20221;-82
2022/12/14 10:42:15;;;;;;;14.38;7.60;;;1.30;99.90;;;;;;5033071;28;20205;-82
2022/12/14 10:44:52;;;;;;;9.77;5.95;;;1.40;99.90;;;;;;5029466;28;20201;-82
2022/12/14 10:47:25;;;;;;;16.40;7.25;;;1.50;99.90;;;;;;5040472;28;20213;-81
2022/12/14 10:50:01;;;;;;;10.35;7.07;;;1.60;99.90;;;;;;5035393;28;20269;-79
2022/12/14 10:52:36;;;;;;;13.13;6.57;;;1.70;99.90;;;;;;5048373;28;20492;-80
2022/12/14 10:55:12;;;;;;;12.93;6.40;;;1.80;99.90;;;;;;5040727;28;20237;-80
2022/12/14 10:57:39;;;;;;;13.25;6.30;;;1.90;99.90;;;;;;5036949;28;20206;-81
2022/12/14 11:00:12;;;;;;;12.25;6.00;;;1.90;99.90;;;;;;5038832;28;20252;-79
2022/12/14 11:02:42;;;;;;;14.87;6.90;;;1.80;99.90;;;;;;5033125;28;20241;-81
2022/12/14 11:05:23;;;;;;;11.05;6.28;;;1.60;99.90;;;;;;5030114;28;20466;-78
2022/12/14 11:07:51;;;;;;;11.00;5.93;;;1.80;99.90;;;;;;5023637;28;20202;-79
2022/12/14 11:10:22;;;;;;;10.45;5.82;;;1.90;99.90;;;;;;5053267;28;20853;-81
2022/12/14 11:13:00;;;;;;;9.52;5.15;;;1.80;99.90;;;;;;5055303;28;20712;-79
2022/12/14 11:15:32;;;;;;;11.57;5.43;;;2.00;99.90;;;;;;5034883;28;20288;-80
2022/12/14 11:18:06;;;;;;;12.73;5.03;;;2.10;99.90;;;;;;5027824;28;20269;-79
2022/12/14 11:20:33;;;;;;;14.10;6.70;;;2.10;99.90;;;;;;5022413;22;20691;-81
2022/12/14 11:23:08;;;;;;;14.90;6.43;;;2.10;99.90;;;;;;4986507;28;20444;-83
2022/12/14 11:25:40;;;;;;;12.80;6.63;;;2.10;99.90;;;;;;4998576;28;20442;-84
2022/12/14 11:28:28;;;;;;;13.80;6.73;;;2.20;99.90;;;;;;4997163;28;20203;-83
2022/12/14 11:31:05;;;;;;;13.38;7.20;;;2.20;99.90;;;;;;5001070;28;20560;-83
2022/12/14 11:33:35;;;;;;;10.15;5.13;;;2.20;99.90;;;;;;4971111;28;20310;-84
2022/12/14 11:36:02;;;;;;;11.30;6.05;;;2.20;99.90;;;;;;4999710;28;20299;-84
2022/12/14 11:38:30;;;;;;;13.43;5.72;;;2.30;99.90;;;;;;4990398;28;20204;-85
2022/12/14 11:41:03;;;;;;;12.93;6.97;;;2.30;99.90;;;;;;4987886;28;20224;-83
2022/12/14 11:43:33;;;;;;;9.40;5.47;;;2.40;99.90;;;;;;4992954;28;20286;-83
2022/12/14 11:46:02;;;;;;;18.13;7.07;;;2.50;99.90;;;;;;5000778;28;20458;-84
2022/12/14 11:48:29;;;;;;;11.80;6.27;;;2.60;99.90;;;;;;4987433;28;20463;-81
2022/12/14 11:51:10;;;;;;;13.67;6.93;;;2.70;99.90;;;;;;4982148;28;20489;-81
2022/12/14 11:53:36;;;;;;;11.45;7.10;;;2.80;99.90;;;;;;4983969;28;20554;-82
2022/12/14 11:56:08;;;;;;;12.87;6.50;;;2.90;99.90;;;;;;4986443;28;20272;-81
2022/12/14 11:58:38;;;;;;;14.33;6.47;;;3.00;99.90;;;;;;4975612;28;20473;-82
2022/12/14 12:01:11;;;;;;;13.63;6.57;;;3.10;99.90;;;;;;4983954;28;20506;-82
2022/12/14 12:03:42;;;;;;;9.77;5.88;;;3.20;99.90;;;;;;4984068;28;20546;-80
2022/12/14 12:06:11;;;;;;;11.30;6.60;;;3.30;99.90;;;;;;4978627;28;20276;-80
2022/12/14 12:08:40;;;;;;;12.30;6.80;;;2.70;99.90;;;;;;4977113;28;20505;-80
2022/12/14 12:11:18;;;;;;;13.73;6.40;;;3.40;99.90;;;;;;4978175;28;20827;-80
2022/12/14 12:13:47;;;;;;;10.60;6.00;;;3.40;99.90;;;;;;4990343;28;20481;-80
2022/12/14 12:16:18;;;;;;;9.93;5.57;;;3.50;99.90;;;;;;4996629;28;20877;-80
2022/12/14 12:18:48;;;;;;;12.30;6.67;;;3.60;99.90;;;;;;4996843;28;20897;-80
2022/12/14 12:21:18;;;;;;;15.93;7.03;;;3.70;99.90;;;;;;4974874;28;20511;-82
2022/12/14 12:23:48;;;;;;;11.23;6.50;;;3.70;99.90;;;;;;4989815;28;20531;-80
2022/12/14 12:26:21;;;;;;;11.37;6.03;;;3.60;99.90;;;;;;5000724;28;21005;-80
2022/12/14 12:28:55;;;;;;;14.30;6.97;;;3.40;99.90;;;;;;4987789;28;20546;-80
2022/12/14 12:31:27;;;;;;;14.70;7.67;;;3.20;99.90;;;;;;4994918;28;21018;-80
2022/12/14 12:33:59;;;;;;;13.13;7.00;;;3.20;99.90;;;;;;4998000;28;20916;-79
2022/12/14 12:36:27;;;;;;;9.00;5.07;;;3.10;99.90;;;;;;4985639;28;20452;-80
2022/12/14 12:39:01;;;;;;;9.20;5.70;;;3.00;99.90;;;;;;4979819;28;20455;-80
2022/12/14 12:41:38;;;;;;;9.13;5.80;;;2.90;99.90;;;;;;4989198;28;20219;-80
2022/12/14 12:44:24;;;;;;;11.53;6.13;;;2.80;99.90;;;;;;4980854;28;20490;-80
2022/12/14 12:47:03;;;;;;;14.33;6.43;;;2.50;99.90;;;;;;4987986;28;20978;-80
2022/12/14 12:49:30;;;;;;;12.07;7.20;;;2.30;99.90;;;;;;4979367;28;20509;-80
2022/12/14 12:52:01;;;;;;;12.43;7.77;;;2.20;99.90;;;;;;4984406;28;20494;-80
2022/12/14 12:54:34;;;;;;;17.40;7.50;;;1.90;99.90;;;;;;4983181;28;20494;-80
2022/12/14 12:57:04;;;;;;;13.60;6.33;;;1.90;99.90;;;;;;4982483;28;20423;-80
2022/12/14 12:59:37;;;;;;;11.93;6.93;;;1.90;99.90;;;;;;4985127;28;20470;-81
2022/12/14 13:02:18;;;;;;;16.35;8.02;;;1.80;99.90;;;;;;4989110;28;20526;-79
2022/12/14 13:04:48;;;;;;;15.93;8.10;;;1.60;99.90;;;;;;4981382;28;20375;-80
2022/12/14 13:07:26;;;;;;;14.63;7.55;;;1.50;99.90;;;;;;4979574;28;20526;-81
2022/12/14 13:09:58;;;;;;;12.15;7.60;;;1.40;99.90;;;;;;4989535;28;20294;-80
2022/12/14 13:12:32;;;;;;;13.63;6.85;;;1.30;99.90;;;;;;4997037;28;20200;-80